Sleights, United Kingdom
Current Conditions -  °F | °C
As of 3:50 PM on Thursday 30 Oct 2014 (Local Time) from EGNV Reporting Station
Haze Haze  
Wind Chill: 61°   Ceiling: Unl
Heat Index: 61°   Visibility: 3mi
Dew Point: 57°   Wind: 12mph
Humidity: 88%   Direction: 180°S
Pressure: 29.94"   Gusts: NA
Location:  54.46°N, 0.66°W
Report Text: EGNV 301550Z 18010KT 5000 HZ FEW015 SCT033 16/14 Q1014
Loading
Personal Weather Stations






























Interactive Weather Map
Tropical Storm Tracking
New forecast layout! Learn more

10-Day Weather Forecast

Advertisements
Track Severe Weather on mobile